Time;durP1;ratioP1;P1;durP2;ratioP2;P2;SDS_P1;SDS_P2;PMS_P1;PMS_P2;Temp;Humidity;BMP_temperature;BMP_pressure;BME280_temperature;BME280_humidity;BME280_pressure;Samples;Min_cycle;Max_cycle;Signal;HPM_P1;HPM_P2
2023/09/03 00:00:52;;;;;;;15.40;7.00;;;;;;;17.37;94.24;100943.91;110417;1267;22190;-59
2023/09/03 00:03:42;;;;;;;14.50;6.50;;;;;;;17.32;94.15;100939.39;110400;1273;22213;-59
2023/09/03 00:06:13;;;;;;;18.00;7.20;;;;;;;17.30;94.16;100934.55;110454;1275;22383;-57
2023/09/03 00:08:46;;;;;;;16.20;7.40;;;;;;;17.27;93.89;100942.49;110455;1275;22379;-59
2023/09/03 00:11:17;;;;;;;17.60;7.80;;;;;;;17.21;93.84;100941.05;110420;1275;22564;-58
2023/09/03 00:13:48;;;;;;;16.00;6.70;;;;;;;17.17;93.95;100940.20;110443;1267;22247;-59
2023/09/03 00:16:19;;;;;;;17.40;6.80;;;;;;;17.13;93.75;100941.58;110452;1275;22419;-59
2023/09/03 00:18:51;;;;;;;17.90;6.90;;;;;;;17.08;93.60;100941.77;110415;1267;22300;-58
2023/09/03 00:21:21;;;;;;;19.80;7.20;;;;;;;17.05;93.67;100936.48;110415;1272;22395;-55
2023/09/03 00:23:53;;;;;;;16.30;7.00;;;;;;;17.02;93.92;100932.98;110488;1274;22232;-60
2023/09/03 00:26:26;;;;;;;15.90;7.40;;;;;;;17.00;94.27;100931.89;110436;1267;22256;-60
2023/09/03 00:28:57;;;;;;;16.10;8.40;;;;;;;16.97;94.10;100933.68;110411;1267;22397;-57
2023/09/03 00:31:28;;;;;;;16.70;8.20;;;;;;;16.91;94.49;100938.27;110416;1275;23565;-60
2023/09/03 00:33:59;;;;;;;16.20;8.00;;;;;;;16.86;94.58;100940.14;110455;1267;23047;-59
2023/09/03 00:36:30;;;;;;;19.80;9.00;;;;;;;16.84;94.56;100934.90;110463;1267;22917;-59
2023/09/03 00:39:01;;;;;;;19.30;8.70;;;;;;;16.80;94.65;100938.38;110432;1267;22468;-58
2023/09/03 00:41:32;;;;;;;18.50;9.20;;;;;;;16.78;94.86;100940.36;110436;1267;22312;-58
2023/09/03 00:44:03;;;;;;;18.60;8.60;;;;;;;16.78;95.04;100940.51;110452;1267;23830;-59
2023/09/03 00:46:34;;;;;;;18.80;9.90;;;;;;;16.79;95.16;100946.11;110451;1267;22297;-59
2023/09/03 00:49:05;;;;;;;17.70;9.00;;;;;;;16.79;95.31;100946.57;110417;1263;23113;-57
2023/09/03 00:51:37;;;;;;;21.50;9.20;;;;;;;16.79;95.52;100948.42;110381;1267;22987;-58
2023/09/03 00:54:09;;;;;;;19.50;9.40;;;;;;;16.80;95.74;100946.63;110410;1268;22946;-58
2023/09/03 00:56:41;;;;;;;21.40;10.20;;;;;;;16.78;95.87;100948.20;110414;1271;22374;-59
2023/09/03 00:59:12;;;;;;;20.60;9.60;;;;;;;16.76;95.95;100948.29;110416;1267;22929;-59
2023/09/03 01:01:44;;;;;;;19.50;9.50;;;;;;;16.76;96.06;100952.91;110399;1275;22341;-59
2023/09/03 01:04:14;;;;;;;19.70;9.30;;;;;;;16.78;96.15;100953.84;110378;1275;22199;-57
2023/09/03 01:06:45;;;;;;;19.60;8.50;;;;;;;16.79;96.30;100952.47;110444;1267;23327;-58
2023/09/03 01:09:18;;;;;;;17.60;8.60;;;;;;;16.81;96.36;100951.55;110473;1267;22441;-59
2023/09/03 01:11:58;;;;;;;18.30;8.80;;;;;;;16.82;96.49;100947.86;110474;1267;22200;-58
2023/09/03 01:14:37;;;;;;;20.60;8.30;;;;;;;16.82;96.53;100947.30;110415;1268;22219;-59
2023/09/03 01:17:14;;;;;;;19.10;8.50;;;;;;;16.82;96.77;100944.13;110402;1275;22528;-58
2023/09/03 01:20:05;;;;;;;17.30;7.40;;;;;;;16.84;96.74;100945.70;110395;1267;22365;-58
2023/09/03 01:22:55;;;;;;;19.90;8.10;;;;;;;16.85;96.73;100945.77;110343;1267;22328;-58
2023/09/03 01:25:42;;;;;;;18.10;9.20;;;;;;;16.87;96.85;100947.58;110412;1273;23278;-57
2023/09/03 01:28:25;;;;;;;19.90;8.00;;;;;;;16.87;97.13;100946.51;110391;1260;22209;-63
2023/09/03 01:31:02;;;;;;;16.20;7.30;;;;;;;16.84;97.18;100942.14;110396;1275;22390;-57
2023/09/03 01:33:34;;;;;;;18.20;8.20;;;;;;;16.80;97.30;100939.29;110454;1275;22506;-60
2023/09/03 01:36:09;;;;;;;20.00;8.60;;;;;;;16.77;97.44;100938.83;110432;1267;23153;-60
2023/09/03 01:38:40;;;;;;;19.60;9.00;;;;;;;16.76;97.61;100933.09;110396;1275;23276;-59
2023/09/03 01:41:13;;;;;;;20.70;9.50;;;;;;;16.75;97.72;100932.36;110389;1267;23072;-57
2023/09/03 01:43:43;;;;;;;20.00;8.50;;;;;;;16.75;97.78;100934.45;110406;1267;22419;-59
2023/09/03 01:46:20;;;;;;;20.90;9.70;;;;;;;16.74;97.86;100934.75;110379;1253;22313;-57
2023/09/03 01:49:05;;;;;;;20.30;8.60;;;;;;;16.73;97.83;100929.52;110385;1267;22279;-59
2023/09/03 01:51:44;;;;;;;22.00;9.80;;;;;;;16.73;97.95;100929.63;110383;1267;22364;-60
2023/09/03 01:54:22;;;;;;;23.30;8.70;;;;;;;16.73;98.05;100929.77;110450;1267;22213;-60
2023/09/03 01:56:58;;;;;;;20.50;8.20;;;;;;;16.71;98.09;100924.85;110405;1267;22282;-60
2023/09/03 01:59:38;;;;;;;17.70;7.70;;;;;;;16.71;98.18;100932.27;110375;1271;22278;-60
2023/09/03 02:02:14;;;;;;;17.30;7.60;;;;;;;16.68;98.29;100930.98;110371;1267;22391;-59
2023/09/03 02:04:46;;;;;;;17.30;8.20;;;;;;;16.65;98.42;100931.43;110324;1267;22375;-59
2023/09/03 02:07:17;;;;;;;18.30;8.50;;;;;;;16.62;98.43;100933.73;108389;1267;22512;-59
2023/09/03 02:09:48;;;;;;;19.30;9.10;;;;;;;16.60;98.54;100931.97;106447;1274;22738;-56
2023/09/03 02:12:23;;;;;;;19.20;9.00;;;;;;;16.59;98.57;100927.95;106251;1271;23107;-56
2023/09/03 02:14:54;;;;;;;19.80;8.40;;;;;;;16.59;98.53;100934.88;110396;1267;22396;-57
2023/09/03 02:17:26;;;;;;;17.30;7.90;;;;;;;16.60;98.66;100933.91;110398;1275;22609;-55
2023/09/03 02:19:57;;;;;;;17.50;7.70;;;;;;;16.60;98.70;100937.55;110428;1267;22319;-56
2023/09/03 02:22:28;;;;;;;16.80;7.00;;;;;;;16.60;98.97;100935.49;110410;1268;22161;-56
2023/09/03 02:24:59;;;;;;;16.10;7.30;;;;;;;16.56;98.95;100934.20;110429;1271;22377;-58
2023/09/03 02:27:30;;;;;;;15.90;7.50;;;;;;;16.52;99.18;100930.42;110418;1268;22363;-56
2023/09/03 02:30:01;;;;;;;15.90;7.60;;;;;;;16.50;99.24;100924.01;110393;1271;22381;-55
2023/09/03 02:32:32;;;;;;;16.90;7.60;;;;;;;16.47;99.33;100915.20;110389;1267;23016;-57
2023/09/03 02:35:03;;;;;;;16.70;7.00;;;;;;;16.47;99.34;100908.19;110390;1267;22343;-57
2023/09/03 02:37:33;;;;;;;15.40;7.30;;;;;;;16.46;99.36;100912.48;110429;1275;22256;-57
2023/09/03 02:40:05;;;;;;;21.20;8.30;;;;;;;16.44;99.24;100912.72;110443;1275;22183;-56
2023/09/03 02:42:35;;;;;;;16.60;7.60;;;;;;;16.42;99.36;100915.99;110397;1275;22368;-57
2023/09/03 02:45:08;;;;;;;18.20;7.20;;;;;;;16.39;99.21;100919.45;108536;1267;24235;-54
2023/09/03 02:47:39;;;;;;;17.90;7.90;;;;;;;16.38;99.07;100929.39;110432;1275;22226;-57
2023/09/03 02:50:10;;;;;;;17.80;8.00;;;;;;;16.34;99.10;100932.91;110409;1267;22249;-57
2023/09/03 02:52:41;;;;;;;15.20;6.30;;;;;;;16.31;99.14;100934.27;110396;1272;23031;-57
2023/09/03 02:55:13;;;;;;;14.90;6.60;;;;;;;16.26;99.16;100927.52;110431;1274;23049;-56
2023/09/03 02:57:44;;;;;;;14.20;6.10;;;;;;;16.23;99.31;100930.22;110414;1275;22916;-55
2023/09/03 03:00:18;;;;;;;17.30;7.60;;;;;;;16.19;99.43;100930.75;110397;1274;22412;-56
2023/09/03 03:02:48;;;;;;;15.40;7.10;;;;;;;16.17;99.51;100924.54;110411;1274;22179;-57
2023/09/03 03:05:19;;;;;;;17.50;6.30;;;;;;;16.14;99.67;100924.42;110407;1275;22157;-56
2023/09/03 03:07:50;;;;;;;18.40;8.80;;;;;;;16.11;99.61;100926.80;110415;1275;23722;-55
2023/09/03 03:10:22;;;;;;;16.80;8.20;;;;;;;16.08;99.78;100934.57;110434;1259;22220;-55
2023/09/03 03:12:53;;;;;;;17.20;7.30;;;;;;;16.04;99.65;100939.71;110421;1275;22281;-57
2023/09/03 03:15:24;;;;;;;16.00;8.60;;;;;;;16.03;99.61;100940.58;110442;1275;22232;-57
2023/09/03 03:17:54;;;;;;;16.40;7.50;;;;;;;16.00;99.69;100941.96;110411;1267;22296;-55
2023/09/03 03:20:25;;;;;;;24.00;8.50;;;;;;;15.94;99.61;100938.80;110374;1275;22361;-57
2023/09/03 03:22:56;;;;;;;15.20;6.50;;;;;;;15.88;99.57;100941.46;110429;1267;22234;-58
2023/09/03 03:25:27;;;;;;;20.00;7.20;;;;;;;15.85;99.67;100940.71;110422;1275;22243;-56
2023/09/03 03:27:58;;;;;;;19.00;8.20;;;;;;;15.83;99.78;100932.10;110423;1267;22993;-56
2023/09/03 03:30:29;;;;;;;19.80;7.80;;;;;;;15.84;99.91;100927.97;110428;1274;22230;-56
2023/09/03 03:33:01;;;;;;;18.80;7.90;;;;;;;15.84;100.00;100928.63;110416;1274;22171;-56
2023/09/03 03:35:36;;;;;;;18.40;7.90;;;;;;;15.85;100.00;100932.07;110432;1275;22167;-57
2023/09/03 03:38:07;;;;;;;17.00;8.00;;;;;;;15.86;100.00;100938.48;110422;1275;22384;-55
2023/09/03 03:40:38;;;;;;;16.50;6.50;;;;;;;15.87;100.00;100942.68;110429;1275;22418;-54
2023/09/03 03:43:09;;;;;;;16.20;6.90;;;;;;;15.87;100.00;100946.52;110438;1264;23214;-56
2023/09/03 03:45:40;;;;;;;16.10;7.60;;;;;;;15.86;100.00;100951.02;110447;1271;22215;-56
2023/09/03 03:48:11;;;;;;;16.10;7.90;;;;;;;15.85;100.00;100944.52;110413;1267;22217;-56
2023/09/03 03:50:42;;;;;;;18.80;8.80;;;;;;;15.82;100.00;100941.67;110380;1264;22310;-55
2023/09/03 03:53:13;;;;;;;16.40;7.40;;;;;;;15.79;100.00;100937.03;110378;1275;22879;-58
2023/09/03 03:55:44;;;;;;;16.60;7.60;;;;;;;15.76;100.00;100933.77;110401;1275;22418;-55
2023/09/03 03:58:15;;;;;;;18.90;6.80;;;;;;;15.74;100.00;100934.48;110416;1270;22251;-55
2023/09/03 04:00:46;;;;;;;17.20;6.70;;;;;;;15.73;100.00;100939.48;110450;1275;22180;-57
2023/09/03 04:03:17;;;;;;;17.80;7.90;;;;;;;15.70;100.00;100934.73;110398;1267;22926;-55
2023/09/03 04:05:55;;;;;;;16.80;6.70;;;;;;;15.69;100.00;100930.76;110376;1275;22213;-57
2023/09/03 04:08:27;;;;;;;16.60;7.10;;;;;;;15.69;100.00;100936.67;110375;1275;22241;-56
2023/09/03 04:11:01;;;;;;;17.20;7.10;;;;;;;15.68;100.00;100932.23;110412;1274;22192;-57
2023/09/03 04:13:32;;;;;;;16.60;7.60;;;;;;;15.67;99.97;100932.86;110442;1268;22205;-55
2023/09/03 04:16:09;;;;;;;14.10;7.00;;;;;;;15.66;99.99;100935.68;110424;1271;22268;-57
2023/09/03 04:18:40;;;;;;;18.40;7.20;;;;;;;15.65;99.94;100941.05;110478;1275;22152;-57
2023/09/03 04:21:12;;;;;;;17.30;8.70;;;;;;;15.62;100.00;100945.01;106545;1267;22529;-55
2023/09/03 04:23:43;;;;;;;15.60;7.40;;;;;;;15.56;100.00;100939.02;106270;1271;22538;-54
2023/09/03 04:26:14;;;;;;;17.70;7.40;;;;;;;15.54;100.00;100941.86;106298;1267;22819;-55
2023/09/03 04:28:44;;;;;;;18.10;7.90;;;;;;;15.53;100.00;100942.82;106396;1271;22532;-56
2023/09/03 04:31:15;;;;;;;16.80;7.80;;;;;;;15.53;100.00;100945.79;106354;1275;25254;-54
2023/09/03 04:33:46;;;;;;;15.60;7.30;;;;;;;15.52;100.00;100943.38;106285;1275;22644;-54
2023/09/03 04:36:17;;;;;;;18.60;8.40;;;;;;;15.53;100.00;100940.67;106295;1267;22523;-54
2023/09/03 04:38:48;;;;;;;24.30;8.60;;;;;;;15.53;100.00;100947.73;106393;1275;22531;-56
2023/09/03 04:41:19;;;;;;;17.80;7.70;;;;;;;15.50;100.00;100955.80;106393;1264;24942;-55
2023/09/03 04:43:50;;;;;;;18.50;7.60;;;;;;;15.45;100.00;100951.59;106219;1271;23448;-54
2023/09/03 04:46:21;;;;;;;18.30;7.50;;;;;;;15.43;100.00;100949.40;106269;1264;22569;-56
2023/09/03 04:48:51;;;;;;;15.20;6.40;;;;;;;15.42;100.00;100945.15;106395;1268;25538;-54
2023/09/03 04:51:22;;;;;;;18.30;8.00;;;;;;;15.43;100.00;100945.78;106395;1275;22517;-55
2023/09/03 04:53:54;;;;;;;18.00;7.60;;;;;;;15.43;100.00;100950.64;106226;1268;25300;-56
2023/09/03 04:56:25;;;;;;;16.50;7.60;;;;;;;15.45;100.00;100953.53;110434;1275;22255;-55
2023/09/03 04:58:56;;;;;;;19.90;8.00;;;;;;;15.45;100.00;100965.98;110472;1275;23249;-56
2023/09/03 05:01:27;;;;;;;16.40;7.40;;;;;;;15.45;100.00;100973.44;110435;1275;22895;-54
2023/09/03 05:03:58;;;;;;;17.80;7.80;;;;;;;15.44;100.00;100974.14;110444;1263;22178;-58
2023/09/03 05:06:29;;;;;;;17.50;8.30;;;;;;;15.43;100.00;100971.02;110466;1275;23100;-55
2023/09/03 05:09:00;;;;;;;17.30;8.40;;;;;;;15.45;100.00;100970.31;110449;1275;22180;-57
2023/09/03 05:11:31;;;;;;;19.20;9.10;;;;;;;15.47;100.00;100970.34;110454;1275;23235;-56
2023/09/03 05:14:02;;;;;;;21.30;9.50;;;;;;;15.50;100.00;100978.61;110433;1271;22162;-57
2023/09/03 05:16:32;;;;;;;20.80;9.60;;;;;;;15.54;100.00;100976.87;110413;1275;23022;-56
2023/09/03 05:19:06;;;;;;;18.60;9.30;;;;;;;15.59;100.00;100979.52;110434;1274;22313;-55
2023/09/03 05:21:39;;;;;;;17.80;8.30;;;;;;;15.65;100.00;100984.14;110432;1268;22221;-56
2023/09/03 05:24:10;;;;;;;23.00;9.30;;;;;;;15.70;100.00;100985.16;110443;1275;22326;-59
2023/09/03 05:26:42;;;;;;;17.80;7.50;;;;;;;15.74;100.00;100985.65;110415;1273;22331;-57
2023/09/03 05:29:13;;;;;;;16.40;7.70;;;;;;;15.78;100.00;100982.31;110440;1275;22421;-55
2023/09/03 05:34:37;;;;;;;17.70;7.30;;;;;;;15.86;100.00;100993.61;110419;1264;22212;-55
2023/09/03 05:37:08;;;;;;;17.50;7.10;;;;;;;15.87;100.00;100992.76;110448;1267;23056;-56
2023/09/03 05:39:39;;;;;;;18.30;7.50;;;;;;;15.90;100.00;100992.92;110435;1275;22165;-57
2023/09/03 05:42:10;;;;;;;15.10;7.20;;;;;;;15.92;100.00;100998.09;110430;1274;23134;-56
2023/09/03 05:44:41;;;;;;;17.00;8.00;;;;;;;15.95;100.00;101000.00;110425;1271;22188;-54
2023/09/03 05:47:14;;;;;;;16.70;7.90;;;;;;;15.98;100.00;100999.56;110401;1275;22533;-57
2023/09/03 05:49:46;;;;;;;18.70;7.70;;;;;;;16.02;100.00;100996.98;110426;1271;22231;-56
2023/09/03 05:52:17;;;;;;;17.50;6.80;;;;;;;16.04;100.00;101000.29;110394;1267;22231;-55
2023/09/03 05:54:49;;;;;;;17.00;7.20;;;;;;;16.06;100.00;101006.35;110378;1267;23065;-57
2023/09/03 05:57:20;;;;;;;17.90;8.20;;;;;;;16.09;100.00;101011.49;110454;1274;22983;-56
2023/09/03 05:59:52;;;;;;;17.20;7.30;;;;;;;16.10;100.00;101009.86;110434;1267;22130;-56
2023/09/03 06:02:24;;;;;;;14.50;6.90;;;;;;;16.13;100.00;101007.88;110457;1267;22337;-56
2023/09/03 06:04:54;;;;;;;15.60;7.60;;;;;;;16.15;100.00;101007.40;110452;1266;22248;-57
2023/09/03 06:07:26;;;;;;;16.10;6.80;;;;;;;16.19;100.00;101007.64;110481;1274;22310;-56
2023/09/03 06:09:56;;;;;;;15.60;7.00;;;;;;;16.21;100.00;101010.06;110464;1259;22242;-56
2023/09/03 06:12:27;;;;;;;16.00;7.90;;;;;;;16.23;100.00;101014.59;110478;1266;22396;-57
2023/09/03 06:14:59;;;;;;;17.30;8.50;;;;;;;16.27;100.00;101018.20;110453;1270;22438;-58
2023/09/03 06:17:30;;;;;;;17.60;7.60;;;;;;;16.30;100.00;101022.73;110477;1268;23335;-57
2023/09/03 06:20:01;;;;;;;16.60;7.10;;;;;;;16.33;100.00;101019.83;110443;1268;22240;-56
2023/09/03 06:22:32;;;;;;;16.50;6.70;;;;;;;16.37;100.00;101021.45;110423;1270;22210;-57
2023/09/03 06:25:03;;;;;;;17.60;8.00;;;;;;;16.41;100.00;101021.86;110396;1274;22326;-55
2023/09/03 06:27:34;;;;;;;19.90;7.80;;;;;;;16.45;100.00;101028.64;110434;1261;23041;-57
2023/09/03 06:30:06;;;;;;;17.10;6.60;;;;;;;16.50;100.00;101034.55;110429;1274;22904;-58
2023/09/03 06:32:37;;;;;;;17.40;7.80;;;;;;;16.54;100.00;101034.69;110434;1268;22174;-56
2023/09/03 06:35:08;;;;;;;17.70;8.00;;;;;;;16.59;100.00;101038.31;110438;1274;22334;-58
2023/09/03 06:37:40;;;;;;;16.50;7.30;;;;;;;16.63;100.00;101038.44;110423;1274;22152;-57
2023/09/03 06:40:14;;;;;;;15.20;6.70;;;;;;;16.68;100.00;101046.17;110448;1267;22675;-56
2023/09/03 06:42:45;;;;;;;15.80;6.20;;;;;;;16.75;100.00;101048.77;110470;1274;22197;-57
2023/09/03 06:45:17;;;;;;;15.90;6.80;;;;;;;16.83;100.00;101050.58;110441;1274;22163;-56
2023/09/03 06:47:48;;;;;;;16.10;6.00;;;;;;;16.91;100.00;101047.23;110466;1274;22367;-57
2023/09/03 06:50:19;;;;;;;17.10;6.90;;;;;;;16.99;99.98;101043.08;110451;1268;22401;-57
2023/09/03 06:52:50;;;;;;;14.00;6.60;;;;;;;17.06;99.87;101043.27;110427;1267;22397;-59
2023/09/03 06:55:21;;;;;;;14.10;5.40;;;;;;;17.13;99.34;101049.27;110428;1273;23365;-57
2023/09/03 06:57:52;;;;;;;13.00;4.90;;;;;;;17.19;98.49;101051.90;110444;1270;22190;-56
2023/09/03 07:00:23;;;;;;;12.90;5.00;;;;;;;17.25;98.02;101050.75;110437;1267;23239;-57
2023/09/03 07:02:54;;;;;;;15.40;5.00;;;;;;;17.33;98.55;101052.59;110405;1268;23608;-58
2023/09/03 07:05:25;;;;;;;13.00;5.20;;;;;;;17.41;97.90;101055.48;110464;1268;22331;-59
2023/09/03 07:07:56;;;;;;;15.00;4.70;;;;;;;17.48;97.74;101052.35;110481;1268;22164;-57
2023/09/03 07:10:27;;;;;;;13.40;4.10;;;;;;;17.53;97.33;101053.88;110450;1268;22140;-56
2023/09/03 07:12:58;;;;;;;13.10;4.40;;;;;;;17.58;96.49;101058.36;110458;1268;22207;-56
2023/09/03 07:15:29;;;;;;;11.60;3.80;;;;;;;17.61;96.59;101058.68;110491;1267;23239;-58
2023/09/03 07:18:00;;;;;;;13.00;4.30;;;;;;;17.68;96.54;101064.35;110451;1274;22208;-57
2023/09/03 07:20:30;;;;;;;10.70;3.40;;;;;;;17.73;95.99;101062.01;110453;1274;22934;-58
2023/09/03 07:23:01;;;;;;;9.40;3.10;;;;;;;17.78;95.65;101061.25;110459;1270;22208;-58
2023/09/03 07:25:34;;;;;;;12.50;3.80;;;;;;;17.83;95.74;101062.04;110465;1274;22212;-56
2023/09/03 07:28:06;;;;;;;10.10;3.10;;;;;;;17.86;94.95;101063.58;110417;1267;22419;-58
2023/09/03 07:30:39;;;;;;;11.20;3.90;;;;;;;17.89;95.16;101064.63;110459;1267;23321;-66
2023/09/03 07:33:10;;;;;;;9.40;3.20;;;;;;;17.93;95.25;101069.97;110307;1267;22202;-58
2023/09/03 07:35:45;;;;;;;9.00;2.80;;;;;;;17.96;94.64;101071.66;110173;1258;22523;-58
2023/09/03 07:38:25;;;;;;;9.30;3.00;;;;;;;18.00;93.95;101068.89;110298;1267;22315;-62
2023/09/03 07:40:57;;;;;;;8.70;3.10;;;;;;;18.04;93.94;101074.35;110291;1267;22487;-62
2023/09/03 07:43:29;;;;;;;14.60;3.20;;;;;;;18.08;93.86;101075.96;110394;1266;22188;-60
2023/09/03 07:46:00;;;;;;;9.80;3.10;;;;;;;18.14;93.09;101079.81;110425;1267;22392;-59
2023/09/03 07:48:31;;;;;;;9.00;2.30;;;;;;;18.20;92.12;101085.78;110381;1267;22354;-61
2023/09/03 07:51:03;;;;;;;12.00;3.10;;;;;;;18.20;91.11;101088.52;110355;1267;22280;-62
2023/09/03 07:53:35;;;;;;;13.00;2.50;;;;;;;18.21;91.69;101096.63;110371;1268;23458;-59
2023/09/03 07:56:06;;;;;;;10.90;3.10;;;;;;;18.24;91.88;101094.27;110309;1267;22177;-58
2023/09/03 07:58:39;;;;;;;10.00;2.90;;;;;;;18.29;91.82;101093.04;110364;1258;23543;-58
2023/09/03 08:01:11;;;;;;;8.30;2.20;;;;;;;18.35;91.21;101090.42;110337;1267;22312;-58
2023/09/03 08:03:44;;;;;;;12.80;2.70;;;;;;;18.41;90.67;101087.73;110329;1268;22292;-56
2023/09/03 08:06:15;;;;;;;6.70;2.00;;;;;;;18.48;90.22;101087.17;110391;1267;22340;-60
2023/09/03 08:08:53;;;;;;;8.50;2.00;;;;;;;18.56;90.56;101089.64;109986;1264;28406;-59
2023/09/03 08:11:24;;;;;;;7.50;2.40;;;;;;;18.63;89.54;101091.03;110368;1264;22316;-60
2023/09/03 08:14:03;;;;;;;6.50;2.10;;;;;;;18.69;89.65;101093.85;110377;1270;22209;-57
2023/09/03 08:16:34;;;;;;;10.00;2.30;;;;;;;18.74;89.01;101096.58;110361;1267;22407;-57
2023/09/03 08:19:05;;;;;;;8.00;2.60;;;;;;;18.79;88.66;101096.47;110409;1258;22370;-57
2023/09/03 08:21:36;;;;;;;8.40;1.90;;;;;;;18.87;87.54;101098.98;110407;1267;22357;-56
2023/09/03 08:24:09;;;;;;;11.30;2.80;;;;;;;18.93;87.87;101103.91;110423;1270;22249;-56
2023/09/03 08:26:40;;;;;;;9.10;2.70;;;;;;;18.96;86.61;101101.17;110458;1267;22388;-55
2023/09/03 08:29:11;;;;;;;9.20;2.80;;;;;;;19.00;87.26;101098.80;110443;1258;22418;-57
2023/09/03 08:31:42;;;;;;;7.60;2.00;;;;;;;19.05;86.87;101102.31;110390;1258;22206;-55
2023/09/03 08:34:14;;;;;;;11.10;2.80;;;;;;;19.07;85.92;101101.68;110405;1263;22312;-56
2023/09/03 08:36:45;;;;;;;13.70;2.70;;;;;;;19.06;85.55;101095.92;110366;1268;23097;-57
2023/09/03 08:39:16;;;;;;;7.40;2.40;;;;;;;19.07;85.84;101093.76;110456;1268;22196;-57
2023/09/03 08:41:49;;;;;;;8.80;2.40;;;;;;;19.12;86.08;101100.70;110339;1268;22285;-57
2023/09/03 08:44:29;;;;;;;11.00;3.00;;;;;;;19.17;84.93;101107.48;110368;1270;22325;-58
2023/09/03 08:47:03;;;;;;;9.20;2.50;;;;;;;19.25;85.92;101102.15;110391;1262;22211;-56
2023/09/03 08:49:34;;;;;;;9.30;2.90;;;;;;;19.37;86.02;101104.30;110318;1266;22309;-56
2023/09/03 08:52:08;;;;;;;13.50;3.10;;;;;;;19.49;85.67;101103.45;110276;1268;22254;-57
2023/09/03 08:54:40;;;;;;;9.70;2.70;;;;;;;19.56;84.91;101098.33;110397;1268;22363;-55
2023/09/03 08:57:11;;;;;;;8.90;2.50;;;;;;;19.60;84.70;101093.92;110379;1264;22326;-54
2023/09/03 08:59:42;;;;;;;10.20;2.70;;;;;;;19.67;84.53;101095.55;110362;1271;22379;-54
2023/09/03 09:02:17;;;;;;;7.40;2.40;;;;;;;19.69;83.87;101099.55;110335;1267;22342;-54
2023/09/03 09:04:49;;;;;;;10.70;2.50;;;;;;;19.71;83.75;101102.38;110354;1273;22373;-55
2023/09/03 09:07:21;;;;;;;10.30;2.20;;;;;;;19.71;82.75;101103.71;110362;1268;22231;-57
2023/09/03 09:09:58;;;;;;;7.90;2.20;;;;;;;19.67;82.20;101106.10;110279;1267;22277;-57
2023/09/03 09:12:37;;;;;;;11.00;2.80;;;;;;;19.66;82.29;101110.53;110371;1264;22309;-56
2023/09/03 09:15:09;;;;;;;8.80;2.50;;;;;;;19.69;82.70;101106.30;110339;1265;22272;-57
2023/09/03 09:17:41;;;;;;;10.80;2.60;;;;;;;19.72;83.04;101106.59;110418;1274;22937;-55
2023/09/03 09:20:14;;;;;;;6.90;2.40;;;;;;;19.77;82.53;101111.55;110416;1263;22242;-56
2023/09/03 09:22:46;;;;;;;8.30;2.40;;;;;;;19.81;82.01;101113.40;110274;1268;22337;-57
2023/09/03 09:25:22;;;;;;;6.80;2.10;;;;;;;19.82;81.65;101117.36;110312;1266;23011;-59
2023/09/03 09:27:54;;;;;;;7.10;2.00;;;;;;;19.87;82.01;101110.85;110192;1263;22184;-56
2023/09/03 09:30:26;;;;;;;9.30;2.50;;;;;;;19.93;82.11;101104.06;110258;1266;22396;-56
2023/09/03 09:33:07;;;;;;;10.80;2.50;;;;;;;19.98;81.02;101102.18;110330;1266;22180;-57
2023/09/03 09:35:38;;;;;;;9.50;2.30;;;;;;;20.05;81.11;101099.98;110334;1271;22364;-56
2023/09/03 09:38:10;;;;;;;10.30;2.30;;;;;;;20.16;81.36;101105.89;110368;1269;22196;-56
2023/09/03 09:40:44;;;;;;;7.50;2.30;;;;;;;20.25;80.29;101100.70;110356;1271;22416;-55
2023/09/03 09:43:16;;;;;;;8.90;2.60;;;;;;;20.31;80.05;101097.32;110296;1274;23092;-56
2023/09/03 09:45:51;;;;;;;10.60;2.30;;;;;;;20.35;80.20;101091.50;110303;1274;22189;-57
2023/09/03 09:48:23;;;;;;;9.40;2.10;;;;;;;20.40;79.29;101093.47;110308;1274;22387;-57
2023/09/03 09:50:54;;;;;;;6.20;1.60;;;;;;;20.47;78.91;101092.45;110299;1256;22322;-55
2023/09/03 09:53:33;;;;;;;7.50;1.80;;;;;;;20.55;78.39;101094.80;110276;1267;22215;-54
2023/09/03 09:56:09;;;;;;;8.30;1.50;;;;;;;20.58;78.30;101100.30;110329;1269;22322;-55
2023/09/03 09:58:42;;;;;;;4.60;1.40;;;;;;;20.61;78.00;101097.40;110304;1267;22346;-55
2023/09/03 10:01:13;;;;;;;6.40;1.20;;;;;;;20.62;77.51;101100.32;110325;1266;23480;-56
2023/09/03 10:03:45;;;;;;;7.00;1.60;;;;;;;20.61;76.42;101097.14;110318;1267;22277;-55
2023/09/03 10:06:18;;;;;;;6.70;1.50;;;;;;;20.62;77.03;101100.27;110171;1274;228475;-57
2023/09/03 10:08:51;;;;;;;4.50;1.10;;;;;;;20.67;76.86;101098.47;110310;1271;22310;-56
2023/09/03 10:11:22;;;;;;;7.30;1.50;;;;;;;20.73;76.30;101099.91;110315;1264;23145;-57
2023/09/03 10:13:53;;;;;;;7.00;1.50;;;;;;;20.79;76.31;101099.65;110307;1274;22283;-57
2023/09/03 10:16:25;;;;;;;5.20;1.00;;;;;;;20.83;76.18;101102.50;110350;1264;22255;-56
2023/09/03 10:18:58;;;;;;;5.90;1.50;;;;;;;20.84;73.24;101107.71;110348;1264;22886;-56
2023/09/03 10:21:31;;;;;;;5.20;1.10;;;;;;;20.81;73.14;101107.37;110316;1273;22326;-57
2023/09/03 10:24:05;;;;;;;5.80;0.90;;;;;;;20.76;73.44;101104.94;110367;1259;22286;-55
2023/09/03 10:26:42;;;;;;;5.00;1.20;;;;;;;20.72;72.09;101105.40;110322;1272;22231;-67
2023/09/03 10:29:19;;;;;;;5.80;1.30;;;;;;;20.70;70.98;101105.51;110343;1274;22197;-56
2023/09/03 10:31:52;;;;;;;6.10;1.20;;;;;;;20.71;70.43;101097.30;110353;1259;22462;-57
2023/09/03 10:34:24;;;;;;;6.30;1.10;;;;;;;20.78;70.81;101101.88;110322;1267;22408;-58
2023/09/03 10:37:09;;;;;;;3.60;0.90;;;;;;;20.87;71.30;101100.82;110302;1271;22377;-58
2023/09/03 10:39:42;;;;;;;4.50;0.80;;;;;;;20.98;70.41;101106.08;110326;1267;22201;-55
2023/09/03 10:42:30;;;;;;;3.90;0.90;;;;;;;21.02;69.76;101103.84;110237;1268;22247;-58
2023/09/03 10:45:02;;;;;;;3.30;0.70;;;;;;;21.00;70.22;101108.91;110264;1266;22227;-59
2023/09/03 10:47:53;;;;;;;3.60;0.80;;;;;;;20.96;69.93;101110.89;110278;1268;22344;-60
2023/09/03 10:50:43;;;;;;;5.50;0.80;;;;;;;20.91;68.85;101112.70;110276;1259;23617;-62
2023/09/03 10:53:38;;;;;;;3.90;0.90;;;;;;;20.84;68.57;101116.64;110194;1266;22326;-61
2023/09/03 10:56:13;;;;;;;4.50;0.70;;;;;;;20.84;67.39;101118.64;110275;1267;22344;-58
2023/09/03 10:58:57;;;;;;;3.40;0.80;;;;;;;20.90;65.87;101117.62;110206;1268;22315;-59
2023/09/03 11:01:33;;;;;;;3.80;0.70;;;;;;;20.97;65.96;101112.90;110283;1261;22238;-60
2023/09/03 11:04:05;;;;;;;4.90;1.00;;;;;;;21.04;65.18;101112.23;110330;1271;22152;-61
2023/09/03 11:06:38;;;;;;;2.90;0.60;;;;;;;21.15;65.67;101104.90;110357;1271;22307;-57
2023/09/03 11:09:25;;;;;;;5.90;0.70;;;;;;;21.23;63.41;101104.81;110241;1266;23512;-61
2023/09/03 11:12:03;;;;;;;5.10;0.80;;;;;;;21.23;65.09;101101.94;110346;1274;23311;-60
2023/09/03 11:14:35;;;;;;;3.30;0.80;;;;;;;21.28;65.16;101102.38;110320;1271;22181;-61
2023/09/03 11:17:13;;;;;;;5.00;0.80;;;;;;;21.35;63.81;101107.83;110328;1268;22223;-62
2023/09/03 11:19:44;;;;;;;6.70;0.90;;;;;;;21.43;63.53;101105.21;110366;1267;22344;-62
2023/09/03 11:22:19;;;;;;;5.00;0.90;;;;;;;21.54;64.16;101109.88;110302;1267;22391;-62
2023/09/03 11:24:51;;;;;;;3.30;0.70;;;;;;;21.63;63.44;101106.14;110267;1267;22311;-62
2023/09/03 11:27:22;;;;;;;4.80;0.80;;;;;;;21.73;63.57;101104.01;110350;1270;23014;-62
2023/09/03 11:30:17;;;;;;;2.90;0.80;;;;;;;21.84;61.82;101109.73;107778;1268;24087;-61
2023/09/03 11:32:48;;;;;;;8.30;0.80;;;;;;;21.88;61.01;101109.11;110372;1272;22671;-61
2023/09/03 11:35:21;;;;;;;3.50;0.60;;;;;;;21.93;62.08;101114.06;110288;1266;22356;-62
2023/09/03 11:37:53;;;;;;;2.90;0.80;;;;;;;21.97;59.97;101115.29;110349;1267;22301;-63